createdAt,value
2024-02-18T00:00:08.082Z,7.78
2024-02-18T00:01:09.784Z,6.78
2024-02-18T00:02:11.623Z,6.50
2024-02-18T00:03:13.117Z,6.63
2024-02-18T00:04:14.784Z,6.65
2024-02-18T00:05:16.822Z,8.10
2024-02-18T00:06:18.423Z,7.50
2024-02-18T00:07:20.123Z,6.45
2024-02-18T00:08:21.899Z,5.55
2024-02-18T00:09:23.449Z,5.22
2024-02-18T00:10:24.991Z,5.68
2024-02-18T00:11:26.960Z,6.10
2024-02-18T00:12:28.680Z,8.40
2024-02-18T00:13:30.296Z,7.50
2024-02-18T00:14:31.858Z,9.75
2024-02-18T00:15:33.390Z,9.38
2024-02-18T00:16:34.883Z,7.00
2024-02-18T00:17:36.447Z,6.47
2024-02-18T00:18:38.263Z,7.68
2024-02-18T00:19:40.413Z,7.32
2024-02-18T00:20:41.945Z,7.63
2024-02-18T00:21:43.552Z,9.07
2024-02-18T00:22:45.132Z,8.75
2024-02-18T00:23:46.844Z,9.57
2024-02-18T00:24:49.530Z,8.75
2024-02-18T00:25:51.091Z,8.15
2024-02-18T00:26:58.502Z,8.07
2024-02-18T00:28:01.125Z,6.47
2024-02-18T00:29:02.766Z,6.07
2024-02-18T00:30:06.054Z,5.40
2024-02-18T00:31:07.752Z,5.20
2024-02-18T00:32:09.291Z,4.60
2024-02-18T00:33:10.908Z,4.95
2024-02-18T00:34:12.861Z,4.88
2024-02-18T00:35:14.498Z,4.88
2024-02-18T00:36:16.084Z,4.90
2024-02-18T00:37:18.921Z,5.20
2024-02-18T00:38:20.461Z,5.35
2024-02-18T00:39:22.332Z,5.20
2024-02-18T00:40:23.966Z,5.15
2024-02-18T00:41:25.599Z,5.30
2024-02-18T00:42:28.406Z,5.35
2024-02-18T00:43:30.364Z,5.50
2024-02-18T00:44:31.913Z,6.28
2024-02-18T00:45:33.951Z,7.07
2024-02-18T00:46:43.608Z,6.13
2024-02-18T00:47:50.147Z,6.57
2024-02-18T00:48:51.907Z,7.68
2024-02-18T00:49:54.024Z,8.10
2024-02-18T00:50:55.659Z,7.18
2024-02-18T00:51:57.264Z,7.32
2024-02-18T00:52:58.801Z,6.70
2024-02-18T00:54:00.462Z,5.38
2024-02-18T00:55:02.279Z,5.55
2024-02-18T00:56:03.915Z,6.22
2024-02-18T00:57:05.567Z,5.78
2024-02-18T00:58:07.072Z,5.20
2024-02-18T00:59:08.616Z,4.93
2024-02-18T01:00:11.462Z,5.00
2024-02-18T01:01:13.139Z,6.13
2024-02-18T01:02:14.793Z,5.32
2024-02-18T01:03:16.378Z,5.38
2024-02-18T01:04:18.081Z,6.30
2024-02-18T01:05:19.695Z,6.70
2024-02-18T01:06:21.346Z,5.63
2024-02-18T01:07:23.133Z,6.10
2024-02-18T01:08:24.592Z,6.32
2024-02-18T01:09:26.131Z,6.57
2024-02-18T01:10:27.856Z,6.18
2024-02-18T01:11:31.908Z,5.90
2024-02-18T01:12:33.460Z,6.10
2024-02-18T01:13:35.109Z,5.60
2024-02-18T01:14:36.895Z,6.00
2024-02-18T01:15:39.289Z,5.90
2024-02-18T01:16:41.895Z,6.90
2024-02-18T01:17:43.822Z,8.43
2024-02-18T01:18:47.141Z,7.80
2024-02-18T01:19:51.769Z,7.88
2024-02-18T01:20:53.746Z,7.20
2024-02-18T01:21:55.501Z,6.93
2024-02-18T01:22:57.038Z,7.25
2024-02-18T01:23:58.595Z,6.20
2024-02-18T01:25:00.428Z,6.03
2024-02-18T01:26:04.672Z,5.57
2024-02-18T01:27:06.245Z,6.60
2024-02-18T01:28:07.830Z,7.28
2024-02-18T01:29:09.970Z,7.88
2024-02-18T01:30:12.001Z,7.05
2024-02-18T01:31:13.589Z,6.88
2024-02-18T01:32:15.092Z,8.38
2024-02-18T01:33:16.610Z,8.68
2024-02-18T01:34:18.272Z,7.78
2024-02-18T01:35:19.945Z,7.97
2024-02-18T01:36:21.501Z,6.63
2024-02-18T01:37:23.232Z,6.60
2024-02-18T01:38:24.700Z,6.20
2024-02-18T01:39:27.167Z,6.30
2024-02-18T01:40:28.728Z,5.25
2024-02-18T01:41:30.258Z,5.68
2024-02-18T01:42:31.758Z,5.40
2024-02-18T01:43:33.634Z,4.78
2024-02-18T01:44:36.796Z,5.53
2024-02-18T01:45:38.573Z,5.57
2024-02-18T01:46:40.300Z,5.68
2024-02-18T01:47:44.047Z,6.45
2024-02-18T01:48:45.773Z,5.30
2024-02-18T01:49:49.600Z,5.72
2024-02-18T01:50:51.498Z,5.88
2024-02-18T01:51:53.314Z,5.07
2024-02-18T01:52:55.327Z,4.90
2024-02-18T01:53:57.731Z,5.55
2024-02-18T01:54:59.651Z,4.80
2024-02-18T01:56:01.507Z,5.18
2024-02-18T01:57:04.958Z,5.47
2024-02-18T01:58:06.641Z,5.63
2024-02-18T01:59:08.427Z,5.40
2024-02-18T02:00:14.022Z,5.90
2024-02-18T02:01:17.456Z,5.25
2024-02-18T02:02:19.438Z,5.85
2024-02-18T02:03:24.270Z,5.38
2024-02-18T02:04:28.307Z,5.57
2024-02-18T02:05:31.006Z,5.28
2024-02-18T02:06:32.602Z,5.68
2024-02-18T02:07:34.206Z,5.13
2024-02-18T02:08:35.730Z,5.28
2024-02-18T02:09:37.730Z,4.80
2024-02-18T02:10:39.366Z,4.90
2024-02-18T02:11:40.936Z,5.53
2024-02-18T02:12:43.708Z,5.88
2024-02-18T02:13:45.232Z,5.03
2024-02-18T02:14:46.759Z,5.43
2024-02-18T02:15:48.498Z,5.72
2024-02-18T02:16:50.168Z,5.45
2024-02-18T02:17:51.740Z,5.65
2024-02-18T02:18:53.393Z,5.40
2024-02-18T02:19:55.033Z,5.35
2024-02-18T02:20:56.708Z,5.93
2024-02-18T02:21:58.242Z,5.40
2024-02-18T02:22:59.810Z,5.53
2024-02-18T02:24:01.348Z,5.88
2024-02-18T02:25:03.328Z,5.15
2024-02-18T02:26:05.201Z,5.53
2024-02-18T02:27:09.616Z,4.95
2024-02-18T02:28:18.943Z,4.85
2024-02-18T02:29:21.028Z,5.22
2024-02-18T02:30:22.719Z,6.25
2024-02-18T02:31:24.299Z,5.65
2024-02-18T02:32:25.987Z,5.65
2024-02-18T02:33:28.195Z,5.55
2024-02-18T02:34:29.877Z,5.53
2024-02-18T02:35:32.200Z,5.13
2024-02-18T02:36:33.791Z,5.13
2024-02-18T02:37:35.590Z,5.72
2024-02-18T02:38:37.936Z,5.30
2024-02-18T02:39:39.509Z,5.43
2024-02-18T02:40:41.499Z,5.65
2024-02-18T02:41:42.989Z,5.60
2024-02-18T02:42:44.514Z,5.70
2024-02-18T02:43:46.116Z,5.50
2024-02-18T02:44:47.673Z,5.53
2024-02-18T02:45:49.238Z,5.13
2024-02-18T02:46:50.740Z,5.72
2024-02-18T02:47:53.766Z,5.57
2024-02-18T02:48:55.461Z,5.53
2024-02-18T02:49:57.098Z,5.95
2024-02-18T02:50:58.707Z,6.30
2024-02-18T02:52:00.582Z,6.18
2024-02-18T02:53:02.131Z,5.25
2024-02-18T02:54:03.762Z,5.53
2024-02-18T02:55:06.128Z,5.97
2024-02-18T02:56:10.194Z,6.00
2024-02-18T02:57:11.707Z,5.30
2024-02-18T02:58:13.288Z,6.70
2024-02-18T02:59:14.899Z,6.03
2024-02-18T03:01:18.795Z,6.28
2024-02-18T03:02:21.764Z,5.60
2024-02-18T03:04:25.267Z,5.75
2024-02-18T03:05:26.873Z,6.13
2024-02-18T03:06:28.506Z,6.07
2024-02-18T03:07:33.233Z,6.47
2024-02-18T03:08:34.927Z,5.45
2024-02-18T03:09:36.425Z,5.57
2024-02-18T03:10:40.473Z,5.60
2024-02-18T03:11:41.987Z,6.20
2024-02-18T03:12:43.672Z,6.32
2024-02-18T03:13:45.214Z,6.88
2024-02-18T03:14:46.712Z,6.80
2024-02-18T03:15:48.659Z,6.22
2024-02-18T03:16:50.330Z,6.75
2024-02-18T03:17:51.932Z,7.15
2024-02-18T03:18:53.584Z,6.43
2024-02-18T03:19:55.845Z,6.85
2024-02-18T03:20:58.467Z,7.55
2024-02-18T03:22:00.057Z,6.15
2024-02-18T03:23:01.821Z,6.65
2024-02-18T03:24:03.819Z,7.60
2024-02-18T03:25:05.874Z,6.85
2024-02-18T03:26:07.709Z,6.93
2024-02-18T03:27:09.147Z,7.10
2024-02-18T03:28:11.464Z,6.80
2024-02-18T03:29:13.035Z,7.57
2024-02-18T03:30:14.906Z,6.95
2024-02-18T03:31:18.756Z,6.93
2024-02-18T03:32:20.233Z,6.40
2024-02-18T03:33:21.925Z,6.32
2024-02-18T03:34:23.629Z,7.32
2024-02-18T03:35:28.602Z,6.72
2024-02-18T03:36:32.059Z,6.93
2024-02-18T03:37:34.423Z,6.65
2024-02-18T03:38:35.946Z,6.30
2024-02-18T03:39:38.390Z,6.47
2024-02-18T03:40:43.001Z,7.03
2024-02-18T03:41:44.730Z,7.72
2024-02-18T03:42:46.627Z,6.50
2024-02-18T03:43:48.967Z,6.70
2024-02-18T03:44:50.568Z,6.88
2024-02-18T03:45:52.167Z,7.93
2024-02-18T03:46:53.707Z,7.13
2024-02-18T03:47:55.770Z,7.45
2024-02-18T03:48:57.322Z,6.68
2024-02-18T03:49:59.043Z,7.10
2024-02-18T03:51:00.681Z,6.03
2024-02-18T03:52:02.325Z,6.78
2024-02-18T03:53:04.010Z,7.88
2024-02-18T03:54:05.524Z,7.32
2024-02-18T03:55:07.242Z,7.80
2024-02-18T03:56:12.542Z,6.95
2024-02-18T03:57:14.765Z,7.18
2024-02-18T03:58:16.766Z,7.50
2024-02-18T03:59:18.595Z,7.30
2024-02-18T04:00:20.313Z,6.80
2024-02-18T04:01:22.078Z,6.78
2024-02-18T04:02:23.885Z,6.05
2024-02-18T04:03:25.424Z,6.57
2024-02-18T04:04:27.149Z,6.43
2024-02-18T04:05:28.848Z,7.30
2024-02-18T04:06:30.769Z,7.10
2024-02-18T04:07:32.906Z,7.30
2024-02-18T04:08:34.547Z,7.80
2024-02-18T04:09:36.250Z,8.00
2024-02-18T04:10:37.864Z,7.53
2024-02-18T04:11:39.935Z,7.45
2024-02-18T04:12:41.562Z,7.20
2024-02-18T04:13:43.697Z,7.13
2024-02-18T04:14:45.172Z,7.13
2024-02-18T04:15:46.746Z,6.70
2024-02-18T04:16:48.378Z,7.50
2024-02-18T04:17:50.770Z,7.53
2024-02-18T04:18:55.023Z,7.00
2024-02-18T04:19:56.664Z,6.97
2024-02-18T04:20:58.723Z,6.82
2024-02-18T04:22:00.520Z,7.60
2024-02-18T04:23:02.169Z,6.50
2024-02-18T04:24:09.799Z,6.80
2024-02-18T04:25:11.876Z,7.18
2024-02-18T04:26:13.783Z,7.78
2024-02-18T04:27:15.334Z,7.65
2024-02-18T04:28:16.914Z,7.88
2024-02-18T04:29:18.439Z,6.93
2024-02-18T04:30:19.925Z,7.28
2024-02-18T04:31:21.613Z,7.30
2024-02-18T04:32:23.110Z,8.25
2024-02-18T04:33:24.696Z,8.00
2024-02-18T04:34:26.301Z,8.05
2024-02-18T04:35:27.989Z,8.07
2024-02-18T04:36:29.483Z,7.63
2024-02-18T04:37:31.083Z,7.65
2024-02-18T04:38:32.654Z,8.38
2024-02-18T04:39:34.286Z,7.35
2024-02-18T04:40:35.857Z,8.77
2024-02-18T04:41:37.901Z,7.93
2024-02-18T04:42:39.412Z,7.65
2024-02-18T04:43:41.313Z,8.32
2024-02-18T04:44:42.851Z,8.45
2024-02-18T04:45:46.151Z,7.15
2024-02-18T04:46:47.644Z,7.95
2024-02-18T04:47:49.334Z,8.63
2024-02-18T04:48:52.283Z,6.50
2024-02-18T04:52:58.362Z,6.35
2024-02-18T04:53:59.858Z,6.25
2024-02-18T04:55:02.298Z,8.00
2024-02-18T04:56:03.971Z,7.38
2024-02-18T04:57:06.443Z,7.15
2024-02-18T04:58:08.297Z,6.88
2024-02-18T04:59:09.891Z,6.72
2024-02-18T05:00:12.158Z,7.63
2024-02-18T05:01:13.739Z,7.15
2024-02-18T05:02:16.373Z,7.90
2024-02-18T05:03:17.966Z,7.15
2024-02-18T05:04:19.537Z,6.85
2024-02-18T05:05:21.201Z,6.45
2024-02-18T05:06:22.759Z,7.70
2024-02-18T05:07:24.221Z,6.57
2024-02-18T05:08:25.727Z,6.70
2024-02-18T05:09:27.353Z,6.65
2024-02-18T05:10:28.875Z,6.80
2024-02-18T05:11:30.400Z,6.60
2024-02-18T05:12:31.965Z,7.15
2024-02-18T05:13:33.462Z,7.00
2024-02-18T05:14:34.958Z,7.38
2024-02-18T05:15:36.733Z,7.53
2024-02-18T05:16:38.626Z,6.80
2024-02-18T05:17:42.245Z,7.20
2024-02-18T05:18:48.284Z,7.65
2024-02-18T05:19:51.211Z,6.65
2024-02-18T05:20:52.822Z,7.18
2024-02-18T05:21:54.685Z,7.13
2024-02-18T05:22:56.265Z,7.25
2024-02-18T05:24:01.017Z,7.50
2024-02-18T05:25:02.598Z,7.07
2024-02-18T05:26:05.358Z,8.07
2024-02-18T05:27:07.734Z,6.88
2024-02-18T05:28:09.299Z,7.50
2024-02-18T05:29:10.992Z,8.10
2024-02-18T05:30:12.960Z,7.85
2024-02-18T05:32:15.102Z,8.48
2024-02-18T05:33:16.760Z,8.00
2024-02-18T05:34:18.724Z,8.60
2024-02-18T05:35:20.570Z,8.50
2024-02-18T05:36:22.225Z,9.85
2024-02-18T05:37:23.957Z,8.85
2024-02-18T05:38:25.430Z,8.98
2024-02-18T05:39:26.967Z,9.35
2024-02-18T05:40:28.511Z,9.52
2024-02-18T05:41:30.204Z,10.70
2024-02-18T05:42:31.695Z,10.45
2024-02-18T05:43:33.255Z,10.05
2024-02-18T05:44:34.777Z,9.57
2024-02-18T05:45:37.617Z,10.07
2024-02-18T05:46:39.353Z,10.57
2024-02-18T05:47:40.972Z,10.13
2024-02-18T05:48:42.985Z,10.00
2024-02-18T05:49:45.135Z,9.63
2024-02-18T05:50:46.828Z,9.95
2024-02-18T05:51:53.708Z,9.40
2024-02-18T05:52:55.193Z,8.27
2024-02-18T05:53:56.953Z,9.75
2024-02-18T05:54:58.464Z,9.32
2024-02-18T05:56:00.045Z,8.88
2024-02-18T05:57:01.574Z,9.23
2024-02-18T05:58:03.186Z,8.82
2024-02-18T05:59:05.032Z,8.90
2024-02-18T06:00:07.197Z,9.85
2024-02-18T06:01:08.909Z,9.02
2024-02-18T06:02:10.957Z,8.88
2024-02-18T06:03:12.496Z,9.85
2024-02-18T06:04:14.055Z,9.10
2024-02-18T06:05:19.337Z,10.35
2024-02-18T06:06:21.154Z,10.43
2024-02-18T06:07:23.022Z,9.68
2024-02-18T06:08:27.443Z,10.50
2024-02-18T06:09:29.082Z,9.90
2024-02-18T06:10:31.097Z,9.63
2024-02-18T06:11:32.719Z,10.18
2024-02-18T06:12:34.256Z,9.82
2024-02-18T06:13:36.283Z,10.77
2024-02-18T06:14:37.972Z,9.38
2024-02-18T06:15:39.807Z,10.90
2024-02-18T06:16:41.358Z,10.45
2024-02-18T06:17:43.224Z,11.07
2024-02-18T06:18:45.112Z,9.85
2024-02-18T06:19:46.783Z,9.98
2024-02-18T06:20:48.864Z,11.18
2024-02-18T06:21:51.499Z,10.55
2024-02-18T06:22:53.384Z,11.68
2024-02-18T06:23:57.694Z,11.23
2024-02-18T06:24:59.368Z,10.07
2024-02-18T06:26:04.035Z,9.48
2024-02-18T06:27:06.545Z,10.00
2024-02-18T06:28:09.373Z,10.50
2024-02-18T06:31:14.265Z,17.67
2024-02-18T06:32:16.355Z,12.55
2024-02-18T06:33:17.935Z,10.27
2024-02-18T06:34:19.813Z,11.85
2024-02-18T06:35:21.648Z,11.05
2024-02-18T06:36:23.335Z,10.65
2024-02-18T06:37:24.814Z,9.75
2024-02-18T06:38:26.380Z,11.13
2024-02-18T06:39:27.893Z,10.65
2024-02-18T06:40:29.447Z,9.90
2024-02-18T06:41:32.486Z,10.40
2024-02-18T06:43:35.566Z,10.10
2024-02-18T06:44:37.077Z,10.23
2024-02-18T06:45:38.626Z,9.95
2024-02-18T06:46:40.235Z,10.45
2024-02-18T06:47:41.818Z,10.40
2024-02-18T06:48:43.501Z,9.40
2024-02-18T06:49:45.227Z,9.73
2024-02-18T06:50:46.813Z,9.23
2024-02-18T06:51:48.508Z,11.32
2024-02-18T06:52:50.399Z,12.48
2024-02-18T06:53:53.794Z,12.52
2024-02-18T06:54:55.325Z,15.43
2024-02-18T06:55:56.823Z,23.95
2024-02-18T06:56:58.422Z,23.00
2024-02-18T06:57:59.918Z,18.67
2024-02-18T06:59:01.777Z,28.02
2024-02-18T07:00:03.715Z,33.72
2024-02-18T07:01:05.403Z,43.05
2024-02-18T07:02:07.169Z,39.45
2024-02-18T07:03:08.750Z,20.05
2024-02-18T07:04:10.441Z,23.75
2024-02-18T07:05:13.004Z,25.85
2024-02-18T07:06:15.403Z,30.70
2024-02-18T07:07:17.198Z,23.50
2024-02-18T07:08:18.698Z,20.02
2024-02-18T07:09:20.413Z,16.58
2024-02-18T07:10:21.918Z,16.08
2024-02-18T07:11:26.925Z,24.40
2024-02-18T07:12:30.348Z,23.27
2024-02-18T07:13:31.984Z,20.13
2024-02-18T07:14:33.473Z,15.38
2024-02-18T07:15:35.048Z,13.40
2024-02-18T07:16:36.537Z,12.23
2024-02-18T07:17:38.073Z,10.82
2024-02-18T07:18:39.877Z,10.88
2024-02-18T07:19:41.748Z,11.05
2024-02-18T07:20:43.348Z,10.75
2024-02-18T07:21:45.060Z,11.70
2024-02-18T07:22:46.854Z,11.10
2024-02-18T07:23:48.355Z,13.75
2024-02-18T07:24:49.846Z,12.52
2024-02-18T07:25:51.550Z,9.63
2024-02-18T07:26:53.086Z,9.95
2024-02-18T07:27:54.641Z,10.82
2024-02-18T07:28:59.356Z,10.88
2024-02-18T07:30:04.333Z,10.32
2024-02-18T07:31:06.822Z,13.20
2024-02-18T07:32:08.353Z,16.15
2024-02-18T07:33:10.613Z,14.27
2024-02-18T07:34:12.399Z,17.52
2024-02-18T07:35:14.079Z,16.38
2024-02-18T07:36:15.683Z,16.85
2024-02-18T07:37:17.292Z,18.55
2024-02-18T07:38:19.056Z,14.07
2024-02-18T07:39:21.392Z,14.80
2024-02-18T07:40:22.888Z,12.75
2024-02-18T07:41:26.380Z,18.85
2024-02-18T07:42:28.015Z,13.82
2024-02-18T07:43:29.523Z,11.82
2024-02-18T07:44:31.129Z,11.45
2024-02-18T07:45:32.753Z,13.52
2024-02-18T07:46:34.460Z,13.05
2024-02-18T07:47:36.095Z,11.27
2024-02-18T07:48:37.828Z,8.30
2024-02-18T07:49:39.673Z,8.30
2024-02-18T07:50:42.311Z,7.13
2024-02-18T07:51:44.083Z,9.32
2024-02-18T07:52:45.643Z,9.82
2024-02-18T07:53:47.275Z,8.52
2024-02-18T07:54:48.794Z,9.05
2024-02-18T07:55:50.678Z,11.75
2024-02-18T07:56:52.777Z,10.05
2024-02-18T07:57:54.301Z,9.60
2024-02-18T07:58:55.822Z,8.80
2024-02-18T07:59:57.505Z,9.50
2024-02-18T08:00:59.146Z,8.88
2024-02-18T08:02:00.870Z,8.57
2024-02-18T08:03:02.610Z,8.98
2024-02-18T08:04:04.366Z,8.50
2024-02-18T08:05:06.405Z,10.00
2024-02-18T08:06:11.176Z,9.57
2024-02-18T08:07:15.019Z,9.32
2024-02-18T08:08:16.572Z,9.73
2024-02-18T08:09:18.038Z,9.90
2024-02-18T08:10:19.597Z,8.93
2024-02-18T08:11:21.124Z,8.80
2024-02-18T08:12:22.860Z,8.77
2024-02-18T08:13:24.483Z,8.57
2024-02-18T08:14:26.111Z,8.52
2024-02-18T08:15:27.610Z,8.23
2024-02-18T08:16:30.064Z,7.88
2024-02-18T08:17:31.797Z,7.38
2024-02-18T08:18:33.491Z,8.50
2024-02-18T08:19:35.256Z,8.02
2024-02-18T08:20:41.597Z,9.70
2024-02-18T08:21:43.679Z,8.48
2024-02-18T08:22:45.640Z,9.00
2024-02-18T08:23:47.269Z,8.30
2024-02-18T08:24:49.326Z,8.43
2024-02-18T08:25:50.825Z,8.55
2024-02-18T08:26:52.295Z,8.07
2024-02-18T08:27:53.957Z,8.63
2024-02-18T08:28:55.535Z,7.80
2024-02-18T08:29:57.080Z,7.78
2024-02-18T08:30:58.604Z,7.93
2024-02-18T08:32:01.748Z,7.82
2024-02-18T08:33:03.635Z,8.93
2024-02-18T08:34:05.351Z,8.95
2024-02-18T08:35:07.374Z,8.15
2024-02-18T08:36:09.043Z,8.30
2024-02-18T08:37:10.550Z,7.25
2024-02-18T08:38:12.101Z,7.53
2024-02-18T08:39:13.630Z,7.18
2024-02-18T08:40:16.083Z,8.50
2024-02-18T08:41:17.761Z,7.82
2024-02-18T08:42:19.298Z,8.00
2024-02-18T08:43:20.856Z,8.65
2024-02-18T08:44:22.388Z,8.27
2024-02-18T08:45:24.017Z,7.28
2024-02-18T08:46:25.598Z,8.70
2024-02-18T08:47:27.206Z,7.85
2024-02-18T08:48:29.905Z,9.13
2024-02-18T08:49:31.567Z,8.25
2024-02-18T08:50:33.170Z,7.60
2024-02-18T08:51:35.185Z,6.50
2024-02-18T08:52:37.308Z,7.80
2024-02-18T08:53:39.520Z,7.35
2024-02-18T08:54:44.736Z,7.07
2024-02-18T08:55:47.465Z,8.32
2024-02-18T08:56:49.107Z,11.13
2024-02-18T08:57:51.392Z,10.15
2024-02-18T08:58:52.999Z,8.15
2024-02-18T08:59:54.615Z,7.22
2024-02-18T09:00:56.321Z,7.68
2024-02-18T09:02:00.548Z,6.70
2024-02-18T09:03:04.259Z,7.22
2024-02-18T09:04:05.885Z,5.82
2024-02-18T09:05:08.768Z,6.75
2024-02-18T09:07:12.292Z,7.75
2024-02-18T09:08:13.836Z,6.65
2024-02-18T09:09:15.952Z,6.63
2024-02-18T09:10:17.707Z,7.22
2024-02-18T09:11:19.255Z,6.97
2024-02-18T09:12:21.389Z,6.95
2024-02-18T09:13:23.147Z,6.10
2024-02-18T09:14:24.914Z,6.45
2024-02-18T09:15:26.487Z,6.78
2024-02-18T09:16:27.956Z,7.07
2024-02-18T09:17:29.534Z,6.25
2024-02-18T09:18:31.260Z,6.30
2024-02-18T09:19:32.997Z,5.97
2024-02-18T09:20:35.285Z,7.55
2024-02-18T09:21:36.823Z,6.20
2024-02-18T09:22:38.298Z,6.60
2024-02-18T09:23:39.897Z,6.55
2024-02-18T09:24:44.707Z,6.60
2024-02-18T09:25:46.476Z,6.40
2024-02-18T09:26:49.087Z,6.53
2024-02-18T09:27:50.711Z,6.25
2024-02-18T09:28:52.786Z,6.60
2024-02-18T09:29:54.410Z,6.25
2024-02-18T09:30:56.754Z,6.57
2024-02-18T09:31:58.352Z,8.43
2024-02-18T09:32:59.898Z,6.10
2024-02-18T09:34:01.639Z,6.40
2024-02-18T09:35:04.218Z,7.22
2024-02-18T09:36:06.425Z,7.40
2024-02-18T09:37:07.999Z,6.18
2024-02-18T09:38:10.643Z,6.57
2024-02-18T09:39:12.890Z,6.78
2024-02-18T09:40:14.717Z,6.30
2024-02-18T09:41:18.654Z,7.03
2024-02-18T09:42:21.075Z,4.80
2024-02-18T09:43:25.955Z,4.75
2024-02-18T09:44:28.889Z,4.45
2024-02-18T09:45:33.437Z,4.70
2024-02-18T09:46:37.812Z,5.38
2024-02-18T09:47:41.573Z,4.68
2024-02-18T09:48:43.466Z,5.35
2024-02-18T09:49:45.214Z,5.53
2024-02-18T09:50:49.654Z,5.30
2024-02-18T09:51:55.650Z,5.43
2024-02-18T09:52:57.464Z,5.28
2024-02-18T09:53:59.844Z,5.32
2024-02-18T09:55:02.160Z,4.60
2024-02-18T09:56:03.952Z,5.50
2024-02-18T09:57:08.030Z,5.50
2024-02-18T09:58:09.614Z,5.20
2024-02-18T09:59:12.817Z,5.13
2024-02-18T10:00:14.786Z,4.97
2024-02-18T10:01:18.669Z,5.13
2024-02-18T10:02:21.902Z,4.00
2024-02-18T10:03:23.480Z,4.90
2024-02-18T10:04:26.453Z,4.97
2024-02-18T10:05:28.605Z,4.47
2024-02-18T10:06:30.357Z,5.13
2024-02-18T10:07:37.359Z,5.05
2024-02-18T10:08:43.065Z,5.93
2024-02-18T10:09:44.827Z,5.88
2024-02-18T10:10:47.812Z,5.00
2024-02-18T10:11:50.043Z,3.97
2024-02-18T10:12:51.568Z,3.90
2024-02-18T10:13:58.159Z,3.42
2024-02-18T10:15:02.466Z,4.47
2024-02-18T10:16:04.340Z,4.45
2024-02-18T10:17:05.828Z,4.00
2024-02-18T10:18:11.029Z,3.75
2024-02-18T10:19:12.900Z,2.95
2024-02-18T10:20:15.890Z,3.78
2024-02-18T10:21:18.058Z,8.32
2024-02-18T10:22:23.026Z,3.55
2024-02-18T10:23:24.826Z,3.80
2024-02-18T10:24:26.584Z,4.95
2024-02-18T10:25:28.247Z,4.55
2024-02-18T10:26:31.530Z,4.15
2024-02-18T10:27:33.403Z,3.70
2024-02-18T10:28:41.812Z,4.35
2024-02-18T10:29:49.448Z,4.22
2024-02-18T10:30:51.069Z,4.40
2024-02-18T10:31:52.612Z,4.13
2024-02-18T10:32:54.663Z,4.10
2024-02-18T10:33:56.501Z,4.40
2024-02-18T10:34:58.176Z,4.38
2024-02-18T10:36:23.218Z,5.22
2024-02-18T10:37:31.223Z,4.10
2024-02-18T10:38:34.373Z,4.15
2024-02-18T10:39:39.378Z,4.15
2024-02-18T10:40:48.706Z,3.80
2024-02-18T10:42:00.596Z,4.85
2024-02-18T10:43:02.604Z,4.10
2024-02-18T10:44:12.387Z,3.83
2024-02-18T10:45:14.000Z,8.15
2024-02-18T10:46:21.199Z,4.20
2024-02-18T10:47:25.547Z,9.18
2024-02-18T10:48:29.490Z,4.30
2024-02-18T10:49:41.303Z,4.35
2024-02-18T10:50:47.446Z,7.82
2024-02-18T10:51:55.124Z,4.53
2024-02-18T10:53:03.654Z,3.63
2024-02-18T10:54:34.135Z,3.25
2024-02-18T10:55:42.617Z,3.75
2024-02-18T10:56:44.333Z,3.70
2024-02-18T10:58:16.784Z,2.95
2024-02-18T10:59:57.646Z,2.58
2024-02-18T11:01:01.747Z,2.47
2024-02-18T11:02:14.835Z,3.00
2024-02-18T11:03:46.078Z,2.40
2024-02-18T11:04:48.630Z,2.75
2024-02-18T11:05:52.661Z,2.40
2024-02-18T11:06:56.383Z,2.30
2024-02-18T11:07:58.236Z,2.40
2024-02-18T11:09:00.513Z,2.60
2024-02-18T11:10:02.536Z,2.10
2024-02-18T11:11:04.327Z,2.78
2024-02-18T11:12:07.401Z,2.70
2024-02-18T11:13:09.975Z,2.33
2024-02-18T11:14:13.471Z,2.72
2024-02-18T11:15:14.948Z,2.35
2024-02-18T11:16:17.974Z,2.45
2024-02-18T11:17:21.092Z,2.20
2024-02-18T11:18:25.089Z,16.67
2024-02-18T11:19:27.934Z,3.00
2024-02-18T11:21:33.233Z,2.50
2024-02-18T11:22:34.883Z,2.20
2024-02-18T11:23:36.521Z,1.98
2024-02-18T11:24:38.087Z,2.10
2024-02-18T11:25:40.184Z,2.63
2024-02-18T11:26:41.758Z,4.28
2024-02-18T11:27:43.356Z,2.72
2024-02-18T11:28:47.966Z,3.30
2024-02-18T11:29:51.682Z,2.10
2024-02-18T11:31:56.032Z,2.10
2024-02-18T11:32:57.728Z,2.38
2024-02-18T11:34:00.437Z,1.90
2024-02-18T11:36:47.220Z,1.77
2024-02-18T11:37:49.471Z,2.00
2024-02-18T11:38:57.126Z,1.92
2024-02-18T11:40:00.706Z,2.15
2024-02-18T11:41:02.323Z,2.22
2024-02-18T11:42:10.857Z,1.92
2024-02-18T11:43:12.434Z,2.10
2024-02-18T11:44:17.371Z,1.90
2024-02-18T11:45:24.716Z,1.90
2024-02-18T11:46:28.135Z,1.90
2024-02-18T11:47:29.920Z,1.92
2024-02-18T11:48:31.728Z,1.83
2024-02-18T11:49:33.424Z,1.60
2024-02-18T11:50:35.017Z,2.08
2024-02-18T11:51:37.842Z,1.98
2024-02-18T11:53:42.955Z,2.17
2024-02-18T11:54:44.991Z,2.22
2024-02-18T11:55:46.539Z,1.90
2024-02-18T11:56:48.088Z,2.08
2024-02-18T11:57:49.816Z,2.00
2024-02-18T11:58:52.015Z,2.05
2024-02-18T11:59:53.725Z,2.20
2024-02-18T12:00:55.410Z,2.17
2024-02-18T12:01:57.365Z,2.00
2024-02-18T12:03:01.457Z,2.30
2024-02-18T12:04:04.541Z,1.98
2024-02-18T12:05:07.216Z,2.40
2024-02-18T12:06:08.931Z,1.95
2024-02-18T12:07:11.501Z,2.03
2024-02-18T12:08:14.101Z,2.47
2024-02-18T12:09:17.851Z,2.10
2024-02-18T12:10:19.573Z,2.17
2024-02-18T12:11:21.137Z,2.58
2024-02-18T12:12:22.700Z,2.17
2024-02-18T12:13:24.561Z,2.80
2024-02-18T12:14:26.117Z,2.10
2024-02-18T12:15:28.146Z,2.08
2024-02-18T12:16:30.180Z,2.00
2024-02-18T12:17:31.870Z,2.60
2024-02-18T12:18:34.388Z,2.28
2024-02-18T12:19:36.291Z,1.85
2024-02-18T12:20:38.237Z,2.40
2024-02-18T12:21:39.817Z,2.17
2024-02-18T12:22:45.799Z,2.40
2024-02-18T12:23:47.569Z,1.95
2024-02-18T12:24:50.339Z,2.25
2024-02-18T12:25:53.011Z,2.40
2024-02-18T12:26:55.065Z,2.22
2024-02-18T12:27:56.579Z,2.03
2024-02-18T12:28:58.180Z,1.92
2024-02-18T12:30:00.255Z,2.13
2024-02-18T12:31:03.402Z,1.90
2024-02-18T12:32:05.162Z,2.10
2024-02-18T12:33:06.988Z,1.70
2024-02-18T12:34:09.869Z,1.70
2024-02-18T12:35:11.945Z,2.00
2024-02-18T12:36:13.666Z,2.20
2024-02-18T12:37:27.145Z,2.00
2024-02-18T12:38:38.569Z,1.90
2024-02-18T12:39:42.579Z,2.15
2024-02-18T12:40:46.953Z,2.20
2024-02-18T12:41:48.674Z,2.00
2024-02-18T12:43:05.613Z,2.00
2024-02-18T12:44:44.529Z,2.10
2024-02-18T12:46:39.592Z,2.33
2024-02-18T12:47:41.519Z,2.28
2024-02-18T12:48:43.654Z,1.80
2024-02-18T12:49:46.431Z,1.70
2024-02-18T12:51:08.666Z,1.73
2024-02-18T12:52:15.324Z,1.88
2024-02-18T12:53:16.927Z,1.80
2024-02-18T12:54:21.329Z,1.92
2024-02-18T12:55:23.803Z,1.65
2024-02-18T12:56:25.847Z,1.80
2024-02-18T12:57:28.580Z,1.83
2024-02-18T12:58:30.403Z,1.80
2024-02-18T12:59:35.514Z,1.98
2024-02-18T13:00:37.163Z,2.00
2024-02-18T13:01:38.929Z,1.77
2024-02-18T13:02:45.008Z,1.90
2024-02-18T13:03:49.266Z,1.80
2024-02-18T13:04:55.345Z,1.95
2024-02-18T13:05:58.851Z,1.85
2024-02-18T13:07:10.301Z,1.80
2024-02-18T13:08:13.403Z,1.63
2024-02-18T13:09:22.769Z,1.73
2024-02-18T13:10:24.349Z,1.52
2024-02-18T13:11:27.125Z,1.77
2024-02-18T13:12:28.789Z,1.70
2024-02-18T13:13:30.393Z,1.90
2024-02-18T13:14:32.000Z,2.03
2024-02-18T13:15:33.570Z,1.85
2024-02-18T13:16:35.740Z,1.75
2024-02-18T13:17:37.346Z,1.75
2024-02-18T13:18:42.568Z,1.75
2024-02-18T13:19:45.370Z,1.70
2024-02-18T13:20:47.053Z,1.80
2024-02-18T13:21:48.648Z,1.80
2024-02-18T13:22:50.209Z,1.70
2024-02-18T13:23:51.904Z,1.70
2024-02-18T13:24:55.269Z,1.73
2024-02-18T13:25:57.033Z,1.90
2024-02-18T13:26:58.675Z,1.70
2024-02-18T13:28:00.371Z,1.60
2024-02-18T13:29:02.237Z,1.55
2024-02-18T13:30:04.256Z,2.00
2024-02-18T13:31:06.447Z,2.00
2024-02-18T13:32:08.041Z,1.60
2024-02-18T13:33:09.679Z,3.20
2024-02-18T13:34:11.378Z,2.03
2024-02-18T13:35:13.353Z,1.85
2024-02-18T13:36:17.725Z,2.00
2024-02-18T13:37:20.486Z,1.70
2024-02-18T13:38:22.128Z,2.13
2024-02-18T13:39:24.765Z,4.03
2024-02-18T13:40:26.781Z,2.20
2024-02-18T13:41:28.333Z,1.92
2024-02-18T13:42:30.036Z,2.10
2024-02-18T13:43:31.680Z,2.00
2024-02-18T13:44:33.924Z,2.22
2024-02-18T13:45:38.172Z,2.03
2024-02-18T13:46:42.428Z,2.05
2024-02-18T13:47:57.669Z,1.80
2024-02-18T13:49:00.980Z,2.03
2024-02-18T13:50:02.771Z,2.20
2024-02-18T13:55:45.385Z,1.30
2024-02-18T13:56:46.969Z,1.40
2024-02-18T13:57:48.594Z,1.70
2024-02-18T13:58:50.744Z,1.52
2024-02-18T13:59:52.326Z,1.70
2024-02-18T14:00:54.073Z,2.00
2024-02-18T14:01:55.748Z,2.00
2024-02-18T14:02:57.325Z,1.58
2024-02-18T14:03:58.930Z,1.60
2024-02-18T14:05:00.810Z,2.35
2024-02-18T14:06:03.213Z,1.80
2024-02-18T14:07:05.020Z,2.03
2024-02-18T14:08:07.237Z,1.80
2024-02-18T14:09:13.521Z,1.98
2024-02-18T14:10:20.506Z,1.67
2024-02-18T14:11:22.178Z,1.75